createdAt,value
2022-09-10T00:01:29.575Z,100161.47
2022-09-10T00:03:57.874Z,100173.06
2022-09-10T00:06:28.039Z,100182.66
2022-09-10T00:08:57.680Z,100175.13
2022-09-10T00:11:29.154Z,100180.25
2022-09-10T00:13:57.279Z,100180.50
2022-09-10T00:16:25.927Z,100170.91
2022-09-10T00:18:53.776Z,100177.09
2022-09-10T00:21:22.166Z,100175.53
2022-09-10T00:23:51.422Z,100175.78
2022-09-10T00:26:21.669Z,100167.31
2022-09-10T00:28:50.384Z,100172.66
2022-09-10T00:31:19.001Z,100174.53
2022-09-10T00:33:46.826Z,100161.88
2022-09-10T00:36:16.038Z,100178.59
2022-09-10T00:38:43.851Z,100165.28
2022-09-10T00:41:14.068Z,100165.56
2022-09-10T00:43:51.485Z,100171.56
2022-09-10T00:46:26.450Z,100168.16
2022-09-10T00:48:56.643Z,100174.59
2022-09-10T00:51:26.198Z,100165.66
2022-09-10T00:53:54.483Z,100165.97
2022-09-10T00:56:23.873Z,100163.19
2022-09-10T00:58:52.391Z,100158.63
2022-09-10T01:01:20.618Z,100158.19
2022-09-10T01:03:49.655Z,100168.66
2022-09-10T01:06:18.388Z,100165.97
2022-09-10T01:08:46.164Z,100175.00
2022-09-10T01:11:37.810Z,100170.19
2022-09-10T01:14:24.055Z,100166.47
2022-09-10T01:17:03.370Z,100173.03
2022-09-10T01:20:04.456Z,100165.06
2022-09-10T01:22:44.291Z,100173.84
2022-09-10T01:25:22.977Z,100151.59
2022-09-10T01:27:55.429Z,100164.88
2022-09-10T01:30:29.444Z,100171.19
2022-09-10T01:33:04.339Z,100171.56
2022-09-10T01:35:38.754Z,100170.28
2022-09-10T01:38:10.664Z,100175.59
2022-09-10T01:40:39.375Z,100171.16
2022-09-10T01:43:10.762Z,100174.34
2022-09-10T01:45:50.413Z,100172.72
2022-09-10T01:48:36.270Z,100167.03
2022-09-10T01:51:11.869Z,100164.25
2022-09-10T01:53:51.292Z,100167.22
2022-09-10T01:56:35.531Z,100168.03
2022-09-10T01:59:15.295Z,100160.91
2022-09-10T02:01:50.498Z,100168.00
2022-09-10T02:04:20.558Z,100166.56
2022-09-10T02:06:51.120Z,100158.34
2022-09-10T02:09:19.888Z,100161.28
2022-09-10T02:11:49.956Z,100144.34
2022-09-10T02:14:21.879Z,100144.53
2022-09-10T02:16:54.984Z,100152.50
2022-09-10T02:19:22.825Z,100139.16
2022-09-10T02:21:50.801Z,100146.81
2022-09-10T02:24:18.614Z,100142.66
2022-09-10T02:26:47.213Z,100145.75
2022-09-10T02:29:16.959Z,100145.31
2022-09-10T02:31:47.371Z,100140.53
2022-09-10T02:34:16.023Z,100134.22
2022-09-10T02:36:43.942Z,100151.34
2022-09-10T02:39:11.789Z,100149.69
2022-09-10T02:41:41.450Z,100139.44
2022-09-10T02:44:09.696Z,100148.47
2022-09-10T02:46:38.176Z,100147.09
2022-09-10T02:49:07.593Z,100134.97
2022-09-10T02:51:36.932Z,100144.75
2022-09-10T02:54:05.042Z,100137.53
2022-09-10T02:56:32.992Z,100140.19
2022-09-10T02:59:01.142Z,100137.66
2022-09-10T03:01:28.934Z,100137.09
2022-09-10T03:03:58.194Z,100125.78
2022-09-10T03:06:28.642Z,100134.19
2022-09-10T03:08:57.516Z,100130.38
2022-09-10T03:11:40.059Z,100129.22
2022-09-10T03:14:10.119Z,100132.78
2022-09-10T03:16:37.967Z,100125.94
2022-09-10T03:19:05.767Z,100122.41
2022-09-10T03:21:35.194Z,100138.13
2022-09-10T03:24:05.225Z,100129.84
2022-09-10T03:26:33.112Z,100142.78
2022-09-10T03:29:00.858Z,100146.81
2022-09-10T03:31:28.635Z,100134.91
2022-09-10T03:33:57.515Z,100134.75
2022-09-10T03:36:29.301Z,100137.22
2022-09-10T03:38:58.727Z,100143.38
2022-09-10T03:41:28.043Z,100127.06
2022-09-10T03:43:55.962Z,100131.13
2022-09-10T03:46:24.000Z,100144.63
2022-09-10T03:48:55.203Z,100140.22
2022-09-10T03:51:23.677Z,100139.91
2022-09-10T03:53:51.453Z,100136.13
2022-09-10T03:56:20.959Z,100137.25
2022-09-10T03:58:49.328Z,100136.28
2022-09-10T04:01:17.380Z,100145.75
2022-09-10T04:03:45.193Z,100145.06
2022-09-10T04:06:14.445Z,100131.25
2022-09-10T04:08:43.340Z,100146.47
2022-09-10T04:11:11.115Z,100137.34
2022-09-10T04:13:40.217Z,100140.19
2022-09-10T04:16:08.425Z,100137.16
2022-09-10T04:18:36.385Z,100140.53
2022-09-10T04:21:04.713Z,100142.19
2022-09-10T04:23:32.772Z,100132.31
2022-09-10T04:26:00.717Z,100134.13
2022-09-10T04:28:28.462Z,100136.81
2022-09-10T04:30:59.611Z,100138.78
2022-09-10T04:33:27.357Z,100125.00
2022-09-10T04:35:55.134Z,100142.66
2022-09-10T04:38:22.821Z,100131.81
2022-09-10T04:40:50.778Z,100134.31
2022-09-10T04:43:18.867Z,100139.28
2022-09-10T04:45:46.726Z,100129.63
2022-09-10T04:48:16.239Z,100131.13
2022-09-10T04:51:05.486Z,100147.94
2022-09-10T04:53:34.394Z,100139.72
2022-09-10T04:56:02.154Z,100153.16
2022-09-10T04:58:34.247Z,100144.13
2022-09-10T05:01:05.896Z,100141.78
2022-09-10T05:03:35.371Z,100150.41
2022-09-10T05:06:03.757Z,100150.97
2022-09-10T05:08:31.811Z,100144.38
2022-09-10T05:11:01.924Z,100149.00
2022-09-10T05:13:31.017Z,100129.09
2022-09-10T05:15:59.010Z,100145.25
2022-09-10T05:18:27.093Z,100146.19
2022-09-10T05:20:56.354Z,100145.34
2022-09-10T05:23:24.260Z,100143.59
2022-09-10T05:25:52.016Z,100151.56
2022-09-10T05:28:20.818Z,100151.88
2022-09-10T05:30:51.756Z,100150.44
2022-09-10T05:33:20.036Z,100148.38
2022-09-10T05:35:51.666Z,100155.91
2022-09-10T05:38:21.128Z,100151.91
2022-09-10T05:40:49.017Z,100151.06
2022-09-10T05:43:17.052Z,100153.94
2022-09-10T05:45:44.833Z,100151.38
2022-09-10T05:48:13.389Z,100151.38
2022-09-10T05:50:41.343Z,100153.53
2022-09-10T05:53:10.289Z,100149.69
2022-09-10T05:55:39.484Z,100146.59
2022-09-10T05:58:07.299Z,100155.03
2022-09-10T06:00:36.335Z,100154.31
2022-09-10T06:03:05.910Z,100143.47
2022-09-10T06:05:33.822Z,100150.78
2022-09-10T06:08:05.417Z,100148.09
2022-09-10T06:10:36.185Z,100145.69
2022-09-10T06:13:06.067Z,100146.25
2022-09-10T06:15:35.674Z,100152.66
2022-09-10T06:18:03.422Z,100140.41
2022-09-10T06:20:32.070Z,100160.09
2022-09-10T06:22:59.839Z,100148.34
2022-09-10T06:25:28.053Z,100160.53
2022-09-10T06:27:56.601Z,100156.69
2022-09-10T06:30:26.031Z,100162.63
2022-09-10T06:32:54.044Z,100164.44
2022-09-10T06:35:22.098Z,100156.28
2022-09-10T06:37:50.385Z,100163.28
2022-09-10T06:40:18.531Z,100163.84
2022-09-10T06:42:46.434Z,100165.94
2022-09-10T06:45:14.238Z,100153.75
2022-09-10T06:48:32.772Z,100171.72
2022-09-10T06:50:34.210Z,100178.75
2022-09-10T06:53:02.526Z,100170.84
2022-09-10T06:55:30.332Z,100158.16
2022-09-10T06:58:00.467Z,100178.41
2022-09-10T07:00:28.440Z,100180.53
2022-09-10T07:02:57.902Z,100172.84
2022-09-10T07:05:27.618Z,100178.69
2022-09-10T07:07:58.885Z,100187.28
2022-09-10T07:10:27.588Z,100174.03
2022-09-10T07:12:55.552Z,100182.50
2022-09-10T07:15:23.403Z,100166.13
2022-09-10T07:17:51.324Z,100170.31
2022-09-10T07:20:26.101Z,100168.41
2022-09-10T07:22:55.321Z,100190.56
2022-09-10T07:25:23.572Z,100188.75
2022-09-10T07:27:54.464Z,100190.00
2022-09-10T07:30:23.107Z,100193.19
2022-09-10T07:32:51.358Z,100191.53
2022-09-10T07:35:21.436Z,100192.03
2022-09-10T07:37:49.524Z,100195.72
2022-09-10T07:40:17.685Z,100202.03
2022-09-10T07:42:45.507Z,100200.56
2022-09-10T07:45:16.174Z,100199.19
2022-09-10T07:47:47.491Z,100214.75
2022-09-10T07:50:15.906Z,100214.38
2022-09-10T07:52:49.454Z,100212.47
2022-09-10T07:55:18.030Z,100215.22
2022-09-10T07:57:46.270Z,100224.63
2022-09-10T08:00:16.952Z,100225.50
2022-09-10T08:02:46.809Z,100219.06
2022-09-10T08:05:15.137Z,100223.22
2022-09-10T08:07:43.637Z,100219.53
2022-09-10T08:10:13.393Z,100218.66
2022-09-10T08:12:43.382Z,100227.59
2022-09-10T08:15:12.177Z,100215.56
2022-09-10T08:17:40.036Z,100219.25
2022-09-10T08:20:09.823Z,100224.16
2022-09-10T08:22:37.575Z,100213.69
2022-09-10T08:25:06.290Z,100228.13
2022-09-10T08:27:35.550Z,100225.13
2022-09-10T08:30:03.980Z,100233.09
2022-09-10T08:32:31.804Z,100227.47
2022-09-10T08:34:59.590Z,100227.47
2022-09-10T08:37:30.975Z,100237.84
2022-09-10T08:39:59.430Z,100236.16
2022-09-10T08:42:33.193Z,100237.09
2022-09-10T08:45:08.027Z,100228.78
2022-09-10T08:47:45.387Z,100233.31
2022-09-10T08:50:23.369Z,100235.78
2022-09-10T08:52:55.679Z,100234.56
2022-09-10T08:55:28.350Z,100244.88
2022-09-10T08:58:00.001Z,100241.56
2022-09-10T09:00:34.883Z,100250.13
2022-09-10T09:03:11.034Z,100240.50
2022-09-10T09:05:47.309Z,100246.88
2022-09-10T09:08:19.128Z,100242.06
2022-09-10T09:10:51.896Z,100245.47
2022-09-10T09:13:44.308Z,100243.72
2022-09-10T09:16:45.894Z,100230.25
2022-09-10T09:19:22.662Z,100237.16
2022-09-10T09:21:53.621Z,100238.31
2022-09-10T09:24:25.247Z,100228.44
2022-09-10T09:27:01.184Z,100220.25
2022-09-10T09:29:37.046Z,100229.38
2022-09-10T09:32:07.471Z,100220.06
2022-09-10T09:34:41.113Z,100227.97
2022-09-10T09:37:16.982Z,100218.22
2022-09-10T09:39:54.191Z,100226.88
2022-09-10T09:42:30.180Z,100193.47
2022-09-10T09:45:07.301Z,100208.53
2022-09-10T09:47:36.892Z,100200.88
2022-09-10T09:50:05.513Z,100223.16
2022-09-10T09:52:35.708Z,100212.84
2022-09-10T09:55:14.818Z,100219.72
2022-09-10T09:57:43.747Z,100222.06
2022-09-10T10:00:37.496Z,100204.41
2022-09-10T10:03:16.404Z,100220.31
2022-09-10T10:05:44.428Z,100232.44
2022-09-10T10:08:31.035Z,100233.22
2022-09-10T10:10:59.553Z,100217.09
2022-09-10T10:13:37.275Z,100217.94
2022-09-10T10:16:17.129Z,100225.69
2022-09-10T10:18:47.057Z,100227.78
2022-09-10T10:21:18.627Z,100221.81
2022-09-10T10:23:47.521Z,100224.78
2022-09-10T10:26:31.442Z,100231.53
2022-09-10T10:29:04.195Z,100225.97
2022-09-10T10:31:41.255Z,100223.06
2022-09-10T10:34:35.426Z,100225.47
2022-09-10T10:37:10.460Z,100224.41
2022-09-10T10:40:01.370Z,100218.66
2022-09-10T10:42:35.572Z,100229.88
2022-09-10T10:45:24.231Z,100238.38
2022-09-10T10:47:57.184Z,100212.63
2022-09-10T10:50:36.530Z,100218.53
2022-09-10T10:53:25.490Z,100232.56
2022-09-10T10:56:02.993Z,100213.13
2022-09-10T10:58:52.227Z,100227.72
2022-09-10T11:01:24.621Z,100236.53
2022-09-10T11:04:00.959Z,100233.56
2022-09-10T11:06:35.600Z,100228.44
2022-09-10T11:09:08.516Z,100218.59
2022-09-10T11:11:44.349Z,100225.56
2022-09-10T11:14:23.259Z,100218.97
2022-09-10T11:16:58.728Z,100208.53
2022-09-10T11:19:35.554Z,100213.75
2022-09-10T11:22:15.248Z,100194.50
2022-09-10T11:24:50.457Z,100202.19
2022-09-10T11:27:21.611Z,100194.22
2022-09-10T11:29:56.728Z,100195.03
2022-09-10T11:32:32.235Z,100193.13
2022-09-10T11:35:08.500Z,100188.16
2022-09-10T11:37:50.431Z,100188.69
2022-09-10T11:40:24.297Z,100181.16
2022-09-10T11:42:56.444Z,100185.44
2022-09-10T11:45:32.675Z,100186.16
2022-09-10T11:48:08.442Z,100187.16
2022-09-10T11:50:42.742Z,100186.13
2022-09-10T11:53:14.709Z,100185.28
2022-09-10T11:55:55.336Z,100175.13
2022-09-10T11:58:34.715Z,100179.13
2022-09-10T12:01:13.506Z,100172.75
2022-09-10T12:04:01.595Z,100174.41
2022-09-10T12:06:37.056Z,100175.28
2022-09-10T12:09:18.489Z,100171.19
2022-09-10T12:11:58.214Z,100171.13
2022-09-10T12:14:26.050Z,100172.94
2022-09-10T12:16:59.014Z,100173.63
2022-09-10T12:19:30.703Z,100160.59
2022-09-10T12:22:05.183Z,100179.09
2022-09-10T12:24:36.726Z,100179.94
2022-09-10T12:27:06.523Z,100170.09
2022-09-10T12:29:36.690Z,100177.13
2022-09-10T12:32:35.182Z,100167.75
2022-09-10T12:35:47.842Z,100156.59
2022-09-10T12:38:51.316Z,100157.75
2022-09-10T12:42:01.374Z,100157.19
2022-09-10T12:44:47.742Z,100158.25
2022-09-10T12:47:52.373Z,100160.38
2022-09-10T12:50:37.489Z,100160.78
2022-09-10T12:53:31.183Z,100161.19
2022-09-10T12:56:02.911Z,100144.50
2022-09-10T12:58:49.214Z,100144.69
2022-09-10T13:01:32.263Z,100137.91
2022-09-10T13:04:02.902Z,100148.91
2022-09-10T13:06:38.288Z,100138.81
2022-09-10T13:09:18.626Z,100149.41
2022-09-10T13:11:50.483Z,100135.88
2022-09-10T13:14:23.567Z,100131.34
2022-09-10T13:16:51.503Z,100135.34
2022-09-10T13:19:48.865Z,100139.09
2022-09-10T13:23:04.067Z,100139.19
2022-09-10T13:25:40.159Z,100134.13
2022-09-10T13:28:46.356Z,100143.28
2022-09-10T13:31:24.637Z,100125.19
2022-09-10T13:34:47.102Z,100140.38
2022-09-10T13:37:50.360Z,100142.94
2022-09-10T13:40:50.479Z,100129.31
2022-09-10T13:43:34.990Z,100125.13
2022-09-10T13:46:07.621Z,100121.16
2022-09-10T13:48:47.160Z,100120.03
2022-09-10T13:51:23.233Z,100116.13
2022-09-10T13:53:52.747Z,100098.47
2022-09-10T13:56:24.103Z,100098.25
2022-09-10T13:58:56.646Z,100112.75
2022-09-10T14:01:49.137Z,100089.44
2022-09-10T14:04:27.236Z,100082.06
2022-09-10T14:06:58.675Z,100084.97
2022-09-10T14:09:27.514Z,100094.59
2022-09-10T14:11:57.007Z,100080.16
2022-09-10T14:14:30.239Z,100083.47
2022-09-10T14:17:03.617Z,100087.03
2022-09-10T14:19:45.860Z,100077.78
2022-09-10T14:22:22.035Z,100096.34
2022-09-10T14:24:53.725Z,100087.63
2022-09-10T14:27:25.874Z,100089.16
2022-09-10T14:29:56.390Z,100093.53
2022-09-10T14:32:32.816Z,100085.50
2022-09-10T14:35:39.258Z,100102.41
2022-09-10T14:38:26.396Z,100102.44
2022-09-10T14:40:58.703Z,100093.94
2022-09-10T14:43:30.175Z,100104.69
2022-09-10T14:45:58.548Z,100079.59
2022-09-10T14:48:33.417Z,100081.53
2022-09-10T14:51:15.678Z,100076.91
2022-09-10T14:53:44.524Z,100074.47
2022-09-10T14:56:22.363Z,100091.13
2022-09-10T14:58:57.624Z,100063.81
2022-09-10T15:01:25.722Z,100088.63
2022-09-10T15:03:53.547Z,100083.22
2022-09-10T15:06:26.202Z,100083.50
2022-09-10T15:08:55.865Z,100108.44
2022-09-10T15:11:25.953Z,100112.84
2022-09-10T15:13:55.795Z,100128.44
2022-09-10T15:16:23.966Z,100154.97
2022-09-10T15:18:51.920Z,100164.44
2022-09-10T15:21:20.589Z,100160.13
2022-09-10T15:23:49.622Z,100169.91
2022-09-10T15:26:17.529Z,100164.66
2022-09-10T15:28:45.390Z,100174.78
2022-09-10T15:31:13.225Z,100172.81
2022-09-10T15:33:42.014Z,100170.66
2022-09-10T15:36:10.835Z,100177.50
2022-09-10T15:38:38.837Z,100176.44
2022-09-10T15:41:13.201Z,100182.75
2022-09-10T15:43:43.885Z,100178.69
2022-09-10T15:46:13.058Z,100183.00
2022-09-10T15:48:41.171Z,100168.50
2022-09-10T15:51:14.951Z,100169.94
2022-09-10T15:53:43.695Z,100178.34
2022-09-10T15:56:13.005Z,100168.84
2022-09-10T15:58:41.298Z,100165.41
2022-09-10T16:01:11.860Z,100160.75
2022-09-10T16:03:40.247Z,100169.91
2022-09-10T16:06:08.418Z,100167.25
2022-09-10T16:08:36.985Z,100151.50
2022-09-10T16:11:09.595Z,100155.66
2022-09-10T16:13:39.623Z,100160.81
2022-09-10T16:16:09.585Z,100155.00
2022-09-10T16:18:37.839Z,100161.50
2022-09-10T16:21:11.373Z,100161.25
2022-09-10T16:23:41.253Z,100168.06
2022-09-10T16:26:12.180Z,100169.66
2022-09-10T16:28:41.440Z,100174.88
2022-09-10T16:31:12.918Z,100153.41
2022-09-10T16:33:40.847Z,100169.84
2022-09-10T16:36:09.443Z,100176.38
2022-09-10T16:38:37.429Z,100180.19
2022-09-10T16:41:07.119Z,100184.03
2022-09-10T16:43:36.258Z,100185.66
2022-09-10T16:46:06.614Z,100185.44
2022-09-10T16:48:35.422Z,100209.53
2022-09-10T16:51:04.270Z,100209.53
2022-09-10T16:53:32.098Z,100217.75
2022-09-10T16:56:01.922Z,100217.25
2022-09-10T16:58:35.241Z,100221.28
2022-09-10T17:01:06.169Z,100210.34
2022-09-10T17:03:34.002Z,100209.28
2022-09-10T17:06:01.912Z,100219.38
2022-09-10T17:08:30.613Z,100210.59
2022-09-10T17:10:59.455Z,100209.78
2022-09-10T17:13:27.275Z,100216.03
2022-09-10T17:16:14.360Z,100203.09
2022-09-10T17:18:43.037Z,100203.97
2022-09-10T17:21:11.495Z,100195.69
2022-09-10T17:23:41.105Z,100196.78
2022-09-10T17:26:10.353Z,100205.56
2022-09-10T17:28:38.639Z,100208.56
2022-09-10T17:31:08.279Z,100206.06
2022-09-10T17:33:36.104Z,100201.19
2022-09-10T17:36:05.200Z,100201.13
2022-09-10T17:38:35.204Z,100195.94
2022-09-10T17:41:05.047Z,100200.66
2022-09-10T17:43:37.169Z,100199.25
2022-09-10T17:46:05.395Z,100191.00
2022-09-10T17:48:35.660Z,100197.94
2022-09-10T17:51:03.620Z,100200.66
2022-09-10T17:53:31.621Z,100200.47
2022-09-10T17:56:04.000Z,100190.06
2022-09-10T17:58:33.505Z,100190.22
2022-09-10T18:01:02.475Z,100178.69
2022-09-10T18:03:31.561Z,100196.63
2022-09-10T18:06:05.596Z,100199.06
2022-09-10T18:08:33.591Z,100198.31
2022-09-10T18:11:02.778Z,100195.31
2022-09-10T18:13:30.695Z,100200.81
2022-09-10T18:15:58.687Z,100201.88
2022-09-10T18:18:26.576Z,100191.97
2022-09-10T18:20:54.430Z,100196.09
2022-09-10T18:23:23.576Z,100200.41
2022-09-10T18:25:52.581Z,100207.81
2022-09-10T18:28:20.430Z,100209.38
2022-09-10T18:30:48.262Z,100195.66
2022-09-10T18:33:16.299Z,100206.81
2022-09-10T18:35:46.747Z,100208.81
2022-09-10T18:38:14.568Z,100215.44
2022-09-10T18:40:43.831Z,100210.47
2022-09-10T18:43:12.222Z,100216.03
2022-09-10T18:45:40.000Z,100225.53
2022-09-10T18:48:08.557Z,100224.97
2022-09-10T18:50:36.315Z,100221.06
2022-09-10T18:53:04.083Z,100231.16
2022-09-10T18:55:31.913Z,100232.72
2022-09-10T18:58:01.663Z,100225.66
2022-09-10T19:00:29.613Z,100222.97
2022-09-10T19:02:57.419Z,100230.91
2022-09-10T19:05:25.372Z,100231.97
2022-09-10T19:07:55.879Z,100221.22
2022-09-10T19:10:23.598Z,100226.88
2022-09-10T19:12:51.805Z,100236.47
2022-09-10T19:15:20.939Z,100233.97
2022-09-10T19:17:48.739Z,100226.78
2022-09-10T19:20:16.543Z,100216.00
2022-09-10T19:22:44.369Z,100222.66
2022-09-10T19:25:13.223Z,100224.56
2022-09-10T19:27:41.198Z,100218.50
2022-09-10T19:30:10.055Z,100224.75
2022-09-10T19:32:39.117Z,100239.00
2022-09-10T19:35:07.314Z,100245.03
2022-09-10T19:37:35.301Z,100230.78
2022-09-10T19:40:03.812Z,100237.34
2022-09-10T19:42:31.679Z,100236.19
2022-09-10T19:44:59.596Z,100234.75
2022-09-10T19:47:27.371Z,100244.91
2022-09-10T19:49:58.128Z,100250.66
2022-09-10T19:52:26.571Z,100248.72
2022-09-10T19:54:54.311Z,100260.59
2022-09-10T19:57:22.592Z,100251.53
2022-09-10T19:59:50.502Z,100260.09
2022-09-10T20:02:19.600Z,100246.66
2022-09-10T20:04:47.500Z,100254.66
2022-09-10T20:07:16.637Z,100265.94
2022-09-10T20:09:44.453Z,100270.25
2022-09-10T20:12:12.517Z,100271.09
2022-09-10T20:14:41.154Z,100271.66
2022-09-10T20:17:08.979Z,100243.16
2022-09-10T20:19:36.833Z,100257.91
2022-09-10T20:22:04.809Z,100262.03
2022-09-10T20:24:34.165Z,100264.97
2022-09-10T20:27:01.959Z,100262.03
2022-09-10T20:29:32.814Z,100255.50
2022-09-10T20:32:00.830Z,100263.44
2022-09-10T20:34:28.567Z,100268.00
2022-09-10T20:36:56.636Z,100275.41
2022-09-10T20:39:25.871Z,100272.34
2022-09-10T20:42:12.070Z,100275.69
2022-09-10T20:45:06.746Z,100277.88
2022-09-10T20:47:42.826Z,100281.16
2022-09-10T20:50:12.776Z,100277.88
2022-09-10T20:52:41.793Z,100267.13
2022-09-10T20:55:10.357Z,100273.69
2022-09-10T20:57:39.604Z,100285.72
2022-09-10T21:00:08.975Z,100276.38
2022-09-10T21:02:36.870Z,100291.97
2022-09-10T21:05:05.230Z,100280.38
2022-09-10T21:07:34.468Z,100279.84
2022-09-10T21:10:02.246Z,100278.13
2022-09-10T21:12:30.120Z,100270.75
2022-09-10T21:14:59.207Z,100277.31
2022-09-10T21:17:27.032Z,100278.97
2022-09-10T21:19:54.889Z,100274.91
2022-09-10T21:22:22.637Z,100272.31
2022-09-10T21:24:50.444Z,100272.56
2022-09-10T21:27:18.673Z,100275.84
2022-09-10T21:29:47.152Z,100266.22
2022-09-10T21:32:16.278Z,100257.38
2022-09-10T21:34:44.094Z,100263.47
2022-09-10T21:37:12.430Z,100269.03
2022-09-10T21:39:40.166Z,100266.78
2022-09-10T21:42:08.040Z,100274.22
2022-09-10T21:44:35.802Z,100281.31
2022-09-10T21:47:03.505Z,100277.97
2022-09-10T21:49:32.718Z,100280.78
2022-09-10T21:52:00.468Z,100276.91
2022-09-10T21:54:28.488Z,100280.72
2022-09-10T21:56:56.705Z,100276.41
2022-09-10T21:59:26.679Z,100280.22
2022-09-10T22:01:54.734Z,100282.13
2022-09-10T22:04:23.398Z,100279.56
2022-09-10T22:06:54.049Z,100291.41
2022-09-10T22:09:22.200Z,100285.44
2022-09-10T22:11:52.052Z,100284.47
2022-09-10T22:14:21.359Z,100292.69
2022-09-10T22:16:50.099Z,100288.88
2022-09-10T22:19:20.093Z,100287.34
2022-09-10T22:21:47.915Z,100291.75
2022-09-10T22:24:18.429Z,100285.44
2022-09-10T22:26:47.522Z,100299.13
2022-09-10T22:29:18.057Z,100291.84
2022-09-10T22:31:46.670Z,100296.97
2022-09-10T22:34:16.687Z,100296.66
2022-09-10T22:36:47.008Z,100298.06
2022-09-10T22:39:18.353Z,100291.50
2022-09-10T22:41:47.247Z,100300.63
2022-09-10T22:44:16.214Z,100307.25
2022-09-10T22:46:44.326Z,100306.59
2022-09-10T22:49:12.187Z,100302.69
2022-09-10T22:51:41.794Z,100307.03
2022-09-10T22:54:10.553Z,100318.84
2022-09-10T22:56:40.540Z,100317.03
2022-09-10T22:59:12.138Z,100316.47
2022-09-10T23:01:40.499Z,100310.16
2022-09-10T23:04:09.344Z,100311.06
2022-09-10T23:06:39.019Z,100322.41
2022-09-10T23:09:08.547Z,100318.00
2022-09-10T23:11:40.600Z,100321.91
2022-09-10T23:14:11.208Z,100324.66
2022-09-10T23:16:41.576Z,100320.84
2022-09-10T23:19:13.847Z,100318.78
2022-09-10T23:21:43.387Z,100317.50
2022-09-10T23:24:14.094Z,100329.53
2022-09-10T23:26:43.942Z,100322.97
2022-09-10T23:29:13.466Z,100337.50
2022-09-10T23:31:41.780Z,100339.88
2022-09-10T23:34:12.423Z,100340.97
2022-09-10T23:36:58.638Z,100345.94
2022-09-10T23:39:26.885Z,100341.25
2022-09-10T23:41:57.860Z,100346.63
2022-09-10T23:44:26.157Z,100346.38
2022-09-10T23:46:55.408Z,100358.06
2022-09-10T23:49:23.901Z,100354.00
2022-09-10T23:51:52.050Z,100360.97
2022-09-10T23:54:20.465Z,100355.19
2022-09-10T23:56:48.278Z,100355.50
2022-09-10T23:59:17.863Z,100359.63
